Time;durP1;ratioP1;P1;durP2;ratioP2;P2;SDS_P1;SDS_P2;PMS_P1;PMS_P2;Temp;Humidity;BMP_temperature;BMP_pressure;BME280_temperature;BME280_humidity;BME280_pressure;Samples;Min_cycle;Max_cycle;Signal;HPM_P1;HPM_P2
2022/04/10 00:01:29;;;;;;;13.70;1.92;;;3.90;99.90;;;;;;4995745;28;20049;-70
2022/04/10 00:03:56;;;;;;;7.27;1.47;;;3.90;99.90;;;;;;4992606;28;20068;-70
2022/04/10 00:06:23;;;;;;;12.98;2.55;;;3.90;99.90;;;;;;4995250;28;20399;-70
2022/04/10 00:08:48;;;;;;;11.55;2.50;;;3.90;99.90;;;;;;4986576;28;20089;-70
2022/04/10 00:11:14;;;;;;;10.30;1.57;;;3.90;99.90;;;;;;4997373;28;20145;-71
2022/04/10 00:13:40;;;;;;;11.77;1.60;;;3.90;99.90;;;;;;4992049;28;20092;-70
2022/04/10 00:16:05;;;;;;;8.27;1.60;;;3.90;99.90;;;;;;4985400;28;20687;-70
2022/04/10 00:18:32;;;;;;;9.73;1.97;;;4.00;99.90;;;;;;4997894;28;20065;-70
2022/04/10 00:20:58;;;;;;;10.18;1.70;;;3.90;99.90;;;;;;5001032;28;20082;-70
2022/04/10 00:23:24;;;;;;;11.95;2.08;;;3.90;99.90;;;;;;5006196;28;20050;-70
2022/04/10 00:26:06;;;;;;;12.77;1.45;;;3.90;99.90;;;;;;4913259;28;20422;-71
2022/04/10 00:28:46;;;;;;;7.95;2.00;;;3.90;99.90;;;;;;4957817;28;20079;-70
2022/04/10 00:31:19;;;;;;;5.35;2.28;;;4.00;99.90;;;;;;4988064;28;20034;-70
2022/04/10 00:33:46;;;;;;;19.38;2.47;;;4.00;99.90;;;;;;5005871;28;20038;-70
2022/04/10 00:36:47;;;;;;;11.50;2.30;;;3.90;99.90;;;;;;4922497;28;20518;-73
2022/04/10 00:39:25;;;;;;;8.77;1.92;;;3.90;99.90;;;;;;4847956;28;20925;-70
2022/04/10 00:41:54;;;;;;;11.68;2.67;;;3.90;99.90;;;;;;4993788;28;20483;-68
2022/04/10 00:44:21;;;;;;;6.88;1.50;;;3.90;99.90;;;;;;5011064;28;20049;-68
2022/04/10 00:46:49;;;;;;;11.80;1.85;;;3.90;99.90;;;;;;5009276;28;20074;-69
2022/04/10 00:49:31;;;;;;;14.63;1.98;;;3.90;99.90;;;;;;4890406;28;20888;-69
2022/04/10 00:52:13;;;;;;;14.05;2.40;;;3.90;99.90;;;;;;4863546;28;21077;-70
2022/04/10 00:54:39;;;;;;;14.30;2.15;;;3.90;99.90;;;;;;4902838;28;20074;-68
2022/04/10 00:57:06;;;;;;;10.43;1.70;;;3.90;99.90;;;;;;5004470;28;20062;-69
2022/04/10 00:59:31;;;;;;;16.08;2.30;;;3.90;99.90;;;;;;4992520;28;20088;-69
2022/04/10 01:01:57;;;;;;;7.63;2.03;;;3.90;99.90;;;;;;4995593;28;20042;-69
2022/04/10 01:04:23;;;;;;;14.55;1.88;;;3.90;99.90;;;;;;5002337;28;20092;-69
2022/04/10 01:06:54;;;;;;;17.67;2.50;;;3.90;99.90;;;;;;4999451;28;20044;-69
2022/04/10 01:09:20;;;;;;;10.27;1.60;;;3.90;99.90;;;;;;4993534;28;20042;-69
2022/04/10 01:11:46;;;;;;;8.07;1.63;;;3.90;99.90;;;;;;5000021;28;20084;-69
2022/04/10 01:14:13;;;;;;;6.93;1.83;;;3.80;99.90;;;;;;5005049;28;20272;-69
2022/04/10 01:16:39;;;;;;;8.82;2.60;;;3.80;99.90;;;;;;4993136;28;20301;-69
2022/04/10 01:19:05;;;;;;;9.95;2.58;;;3.80;99.90;;;;;;5002736;28;20049;-70
2022/04/10 01:21:33;;;;;;;7.18;2.22;;;3.80;99.90;;;;;;5003782;28;20050;-69
2022/04/10 01:23:59;;;;;;;10.07;2.58;;;3.80;99.90;;;;;;4997534;28;20269;-69
2022/04/10 01:26:27;;;;;;;10.80;2.10;;;3.80;99.90;;;;;;4998784;28;20103;-69
2022/04/10 01:29:06;;;;;;;7.63;1.40;;;3.80;99.90;;;;;;5002279;28;20085;-69
2022/04/10 01:31:34;;;;;;;9.10;1.95;;;3.80;99.90;;;;;;4983486;28;20156;-69
2022/04/10 01:34:08;;;;;;;16.83;2.92;;;3.80;99.90;;;;;;5000966;28;20789;-69
2022/04/10 01:36:36;;;;;;;6.32;1.38;;;3.80;99.90;;;;;;5031255;23;20042;-81
2022/04/10 01:41:32;;;;;;;14.07;1.83;;;3.70;99.90;;;;;;5001051;28;20046;-70
2022/04/10 01:43:59;;;;;;;11.57;2.53;;;3.70;99.90;;;;;;5004103;28;20046;-70
2022/04/10 01:46:25;;;;;;;;;;;3.70;99.90;;;;;;4988473;28;20554;-70
2022/04/10 01:48:51;;;;;;;12.95;2.40;;;3.70;99.90;;;;;;4982316;28;19970;-70
2022/04/10 01:51:17;;;;;;;9.77;1.90;;;3.70;99.90;;;;;;4967529;28;20463;-70
2022/04/10 01:53:42;;;;;;;6.43;1.93;;;3.70;99.90;;;;;;4995245;28;20041;-70
2022/04/10 01:56:09;;;;;;;9.13;2.33;;;3.70;99.90;;;;;;4984191;28;20516;-70
2022/04/10 01:58:37;;;;;;;9.52;2.03;;;3.70;99.90;;;;;;4985528;28;20209;-70
2022/04/10 02:01:08;;;;;;;12.05;1.30;;;3.70;99.90;;;;;;5002211;28;20500;-71
2022/04/10 02:03:34;;;;;;;7.13;1.73;;;3.70;99.90;;;;;;4999503;28;20053;-71
2022/04/10 02:06:00;;;;;;;9.30;1.60;;;3.70;99.90;;;;;;4985574;28;20069;-70
2022/04/10 02:08:26;;;;;;;10.32;1.67;;;3.70;99.90;;;;;;4979591;28;20495;-70
2022/04/10 02:10:52;;;;;;;10.05;1.80;;;3.70;99.90;;;;;;4998300;28;20046;-70
2022/04/10 02:13:19;;;;;;;8.40;1.57;;;3.70;99.90;;;;;;4983828;28;20164;-70
2022/04/10 02:15:45;;;;;;;7.30;2.25;;;3.80;99.90;;;;;;4971189;28;20123;-70
2022/04/10 02:18:10;;;;;;;11.93;1.97;;;3.80;99.90;;;;;;4984633;28;20176;-70
2022/04/10 02:20:36;;;;;;;7.50;1.83;;;3.80;99.90;;;;;;5002309;28;20041;-70
2022/04/10 02:23:02;;;;;;;9.03;1.43;;;3.90;99.90;;;;;;5003210;28;20057;-69
2022/04/10 02:25:27;;;;;;;8.40;1.30;;;4.00;99.90;;;;;;4978335;28;20190;-69
2022/04/10 02:27:53;;;;;;;11.13;2.20;;;4.00;99.90;;;;;;5005626;28;20057;-69
2022/04/10 02:30:18;;;;;;;17.17;1.73;;;3.90;99.90;;;;;;5003005;28;20151;-69
2022/04/10 02:32:45;;;;;;;9.03;1.20;;;4.00;99.90;;;;;;4983287;28;20053;-69
2022/04/10 02:35:11;;;;;;;9.45;2.15;;;4.00;99.90;;;;;;4983018;28;20119;-69
2022/04/10 02:37:37;;;;;;;12.38;2.00;;;3.90;99.90;;;;;;4979170;28;20041;-69
2022/04/10 02:40:04;;;;;;;4.32;1.40;;;3.90;99.90;;;;;;4994243;28;20042;-69
2022/04/10 02:42:33;;;;;;;9.00;1.13;;;3.90;99.90;;;;;;4997433;28;20116;-68
2022/04/10 02:44:59;;;;;;;6.38;1.42;;;3.90;99.90;;;;;;4995053;28;20081;-69
2022/04/10 02:47:25;;;;;;;8.00;1.52;;;3.80;99.90;;;;;;4998318;28;20499;-68
2022/04/10 02:49:51;;;;;;;6.93;1.23;;;3.90;99.90;;;;;;5001605;28;20510;-69
2022/04/10 02:52:16;;;;;;;7.87;2.40;;;3.80;99.90;;;;;;4987859;28;20037;-69
2022/04/10 02:54:42;;;;;;;6.53;1.43;;;3.90;99.90;;;;;;5001220;28;20402;-69
2022/04/10 02:57:08;;;;;;;14.03;1.57;;;3.90;99.90;;;;;;4998494;28;20034;-69
2022/04/10 02:59:34;;;;;;;8.30;1.60;;;3.80;99.90;;;;;;4995992;28;20045;-69
2022/04/10 03:01:59;;;;;;;8.63;1.70;;;3.90;99.90;;;;;;5000467;28;20541;-69
2022/04/10 03:04:25;;;;;;;4.47;1.03;;;3.90;99.90;;;;;;4999704;28;20332;-68
2022/04/10 03:06:51;;;;;;;8.60;1.70;;;3.90;99.90;;;;;;4999757;28;20046;-68
2022/04/10 03:09:17;;;;;;;3.45;0.50;;;3.80;99.90;;;;;;5002797;28;20113;-69
2022/04/10 03:11:43;;;;;;;1.88;0.50;;;3.70;99.90;;;;;;4996081;28;20470;-68
2022/04/10 03:14:09;;;;;;;7.17;0.60;;;3.70;99.90;;;;;;4996083;28;20332;-68
2022/04/10 03:16:35;;;;;;;1.20;0.40;;;3.60;99.90;;;;;;4988823;28;20099;-68
2022/04/10 03:19:00;;;;;;;2.95;0.60;;;3.50;99.90;;;;;;4994198;28;20086;-68
2022/04/10 03:21:26;;;;;;;3.33;0.87;;;3.50;99.90;;;;;;4990558;28;20037;-68
2022/04/10 03:23:52;;;;;;;2.03;0.50;;;3.50;99.90;;;;;;4981748;28;20103;-68
2022/04/10 03:26:17;;;;;;;2.53;0.70;;;3.50;99.90;;;;;;5002382;28;20297;-69
2022/04/10 03:28:43;;;;;;;2.10;0.50;;;3.50;99.90;;;;;;4999648;28;20173;-68
2022/04/10 03:31:08;;;;;;;2.77;0.57;;;3.50;99.90;;;;;;5001929;28;20045;-68
2022/04/10 03:33:34;;;;;;;2.67;0.50;;;3.50;99.90;;;;;;5002646;28;20041;-69
2022/04/10 03:36:00;;;;;;;2.97;0.63;;;3.50;99.90;;;;;;4999184;28;20375;-68
2022/04/10 03:38:26;;;;;;;2.58;0.93;;;3.50;99.90;;;;;;5003461;28;20116;-68
2022/04/10 03:40:51;;;;;;;8.03;1.23;;;3.50;99.90;;;;;;4991643;28;20037;-68
2022/04/10 03:43:17;;;;;;;3.50;1.17;;;3.50;99.90;;;;;;4993780;28;20048;-68
2022/04/10 03:45:43;;;;;;;9.00;2.63;;;3.50;99.90;;;;;;4995086;28;20042;-68
2022/04/10 03:48:09;;;;;;;6.37;1.27;;;3.50;99.90;;;;;;4997175;28;20403;-68
2022/04/10 03:50:35;;;;;;;6.05;1.00;;;3.50;99.90;;;;;;4991325;28;20049;-69
2022/04/10 03:53:02;;;;;;;5.55;0.70;;;3.50;99.90;;;;;;4997340;28;20125;-68
2022/04/10 03:55:28;;;;;;;4.15;0.73;;;3.60;99.90;;;;;;4992035;28;20049;-69
2022/04/10 03:57:54;;;;;;;5.57;0.97;;;3.50;99.90;;;;;;4998691;28;20042;-68
2022/04/10 04:00:20;;;;;;;6.33;0.80;;;3.50;99.90;;;;;;4991589;28;20042;-68
2022/04/10 04:02:46;;;;;;;3.05;1.25;;;3.50;99.90;;;;;;5004654;28;20755;-68
2022/04/10 04:05:12;;;;;;;5.77;0.90;;;3.50;99.90;;;;;;4998662;28;20057;-68
2022/04/10 04:07:38;;;;;;;2.97;0.93;;;3.50;99.90;;;;;;4998837;28;20289;-68
2022/04/10 04:10:06;;;;;;;4.70;1.02;;;3.50;99.90;;;;;;4991626;28;20582;-69
2022/04/10 04:12:33;;;;;;;6.43;1.10;;;3.50;99.90;;;;;;4999447;28;20095;-68
2022/04/10 04:15:02;;;;;;;6.13;1.20;;;3.50;99.90;;;;;;4998054;28;20046;-68
2022/04/10 04:17:28;;;;;;;9.02;1.52;;;3.50;99.90;;;;;;4997288;28;20068;-68
2022/04/10 04:19:53;;;;;;;6.53;1.53;;;3.50;99.90;;;;;;4999304;28;20165;-68
2022/04/10 04:22:19;;;;;;;7.03;1.63;;;3.50;99.90;;;;;;4992195;28;20046;-68
2022/04/10 04:24:45;;;;;;;7.00;0.95;;;3.50;99.90;;;;;;5001184;28;20052;-69
2022/04/10 04:27:11;;;;;;;6.47;0.80;;;3.50;99.90;;;;;;5001359;28;20033;-68
2022/04/10 04:29:36;;;;;;;6.13;1.10;;;3.50;99.90;;;;;;4995147;28;20042;-68
2022/04/10 04:32:03;;;;;;;10.07;2.27;;;3.40;99.90;;;;;;5000782;28;20029;-69
2022/04/10 04:34:28;;;;;;;;;;;3.50;99.90;;;;;;5001200;28;20125;-68
2022/04/10 04:36:54;;;;;;;10.13;1.30;;;3.40;99.90;;;;;;5011440;28;20012;-69
2022/04/10 04:39:20;;;;;;;8.07;1.47;;;3.40;99.90;;;;;;5001100;28;20458;-69
2022/04/10 04:41:46;;;;;;;9.97;2.00;;;3.40;99.90;;;;;;4998780;28;20042;-68
2022/04/10 04:44:11;;;;;;;6.77;2.20;;;3.40;99.90;;;;;;4997201;28;20049;-69
2022/04/10 04:46:37;;;;;;;6.30;1.50;;;3.40;99.90;;;;;;4995206;28;20095;-69
2022/04/10 04:49:03;;;;;;;2.83;1.00;;;3.40;99.90;;;;;;5002406;28;20034;-69
2022/04/10 04:51:29;;;;;;;7.35;1.20;;;3.40;99.90;;;;;;4996283;28;20045;-68
2022/04/10 04:53:54;;;;;;;5.87;1.43;;;3.40;99.90;;;;;;4982824;28;20046;-68
2022/04/10 04:56:20;;;;;;;2.53;0.53;;;3.40;99.90;;;;;;4982298;28;20407;-68
2022/04/10 04:58:47;;;;;;;4.03;1.03;;;3.40;99.90;;;;;;5000936;28;20116;-68
2022/04/10 05:01:13;;;;;;;4.53;0.93;;;3.40;99.90;;;;;;4994685;28;20516;-69
2022/04/10 05:03:39;;;;;;;8.80;2.05;;;3.40;99.90;;;;;;5004890;28;20494;-68
2022/04/10 05:06:05;;;;;;;5.50;1.00;;;3.40;99.90;;;;;;5005160;28;20025;-69
2022/04/10 05:08:31;;;;;;;3.90;0.80;;;3.40;99.90;;;;;;4987713;28;20053;-69
2022/04/10 05:10:57;;;;;;;4.20;0.90;;;3.50;99.90;;;;;;4994242;28;20064;-68
2022/04/10 05:13:23;;;;;;;5.47;1.15;;;3.40;99.90;;;;;;5001168;28;20041;-68
2022/04/10 05:15:49;;;;;;;6.57;0.70;;;3.40;99.90;;;;;;4999087;28;20033;-68
2022/04/10 05:18:17;;;;;;;1.63;0.60;;;3.40;99.90;;;;;;4989530;28;20048;-68
2022/04/10 05:20:45;;;;;;;5.10;1.40;;;3.40;99.90;;;;;;4991387;28;20072;-69
2022/04/10 05:23:10;;;;;;;9.55;1.23;;;3.40;99.90;;;;;;5007720;28;20064;-68
2022/04/10 05:25:39;;;;;;;4.10;0.83;;;3.40;99.90;;;;;;5003550;28;20491;-68
2022/04/10 05:28:05;;;;;;;4.35;1.13;;;3.40;99.90;;;;;;4985097;28;20387;-69
2022/04/10 05:30:30;;;;;;;6.93;1.10;;;3.50;99.90;;;;;;4996923;28;20046;-68
2022/04/10 05:32:57;;;;;;;4.80;1.27;;;3.50;99.90;;;;;;5002393;28;20443;-68
2022/04/10 05:35:22;;;;;;;5.05;1.15;;;3.60;99.90;;;;;;5002267;28;20042;-68
2022/04/10 05:37:48;;;;;;;5.43;1.07;;;3.60;99.90;;;;;;5001626;28;20041;-69
2022/04/10 05:40:13;;;;;;;5.33;1.00;;;3.60;99.90;;;;;;5002958;28;20038;-69
2022/04/10 05:42:43;;;;;;;4.27;1.23;;;3.70;99.90;;;;;;5004852;28;20121;-68
2022/04/10 05:45:09;;;;;;;4.88;1.65;;;3.70;99.90;;;;;;5001681;28;20044;-68
2022/04/10 05:47:36;;;;;;;3.22;1.13;;;3.70;99.90;;;;;;5005179;28;20077;-68
2022/04/10 05:50:03;;;;;;;;;;;3.70;99.90;;;;;;5005377;28;20056;-68
2022/04/10 05:52:28;;;;;;;7.43;1.52;;;3.70;99.90;;;;;;4991188;28;20044;-69
2022/04/10 05:54:58;;;;;;;4.13;0.90;;;3.70;99.90;;;;;;5002835;28;20156;-68
2022/04/10 05:57:24;;;;;;;10.05;2.30;;;3.70;99.90;;;;;;5005870;28;20072;-69
2022/04/10 05:59:50;;;;;;;5.07;1.93;;;3.70;99.90;;;;;;4993714;28;20235;-68
2022/04/10 06:02:15;;;;;;;3.27;1.37;;;3.70;99.90;;;;;;5002483;28;20338;-68
2022/04/10 06:04:41;;;;;;;5.77;1.20;;;3.70;99.90;;;;;;5003203;28;20034;-69
2022/04/10 06:07:07;;;;;;;7.17;2.37;;;3.80;99.90;;;;;;5003241;28;20418;-68
2022/04/10 06:09:32;;;;;;;9.53;1.53;;;3.80;99.90;;;;;;5005507;28;20695;-68
2022/04/10 06:11:58;;;;;;;2.60;0.77;;;3.90;99.90;;;;;;4998166;28;20042;-68
2022/04/10 06:14:24;;;;;;;4.50;0.90;;;3.90;99.90;;;;;;5006190;28;20041;-69
2022/04/10 06:16:49;;;;;;;6.50;1.77;;;3.90;99.90;;;;;;5003362;28;20048;-68
2022/04/10 06:19:16;;;;;;;7.73;0.97;;;4.00;99.90;;;;;;5003658;28;20040;-68
2022/04/10 06:21:42;;;;;;;;;;;4.10;99.90;;;;;;4990582;28;20060;-68
2022/04/10 06:24:08;;;;;;;7.57;1.02;;;4.10;99.90;;;;;;4998788;28;19918;-69
2022/04/10 06:26:33;;;;;;;4.43;1.70;;;4.10;99.90;;;;;;5006349;28;20050;-68
2022/04/10 06:28:59;;;;;;;3.00;1.07;;;4.20;99.90;;;;;;4998222;28;20640;-68
2022/04/10 06:31:36;;;;;;;8.60;0.90;;;4.20;99.90;;;;;;5002344;28;20041;-69
2022/04/10 06:34:02;;;;;;;5.90;1.40;;;4.30;99.90;;;;;;5007319;28;20431;-68
2022/04/10 06:36:27;;;;;;;3.63;0.83;;;4.40;99.90;;;;;;4996360;28;20120;-68
2022/04/10 06:38:53;;;;;;;4.40;1.40;;;4.50;99.90;;;;;;5003881;28;20045;-68
2022/04/10 06:41:18;;;;;;;6.47;1.00;;;4.50;99.90;;;;;;5003457;28;20407;-68
2022/04/10 06:43:44;;;;;;;7.97;0.90;;;4.60;99.90;;;;;;4997497;28;20500;-68
2022/04/10 06:46:09;;;;;;;2.53;0.90;;;4.70;99.90;;;;;;4997961;28;20104;-68
2022/04/10 06:48:36;;;;;;;5.37;1.13;;;4.80;99.90;;;;;;4998729;28;20465;-69
2022/04/10 06:51:03;;;;;;;5.35;1.40;;;4.90;99.90;;;;;;4992831;28;20049;-68
2022/04/10 06:53:28;;;;;;;8.95;1.90;;;5.00;99.90;;;;;;4998288;28;20034;-68
2022/04/10 06:55:54;;;;;;;4.87;1.33;;;5.00;99.90;;;;;;5009921;28;20539;-68
2022/04/10 06:58:22;;;;;;;4.47;0.90;;;5.10;99.90;;;;;;4990380;28;20042;-68
2022/04/10 07:00:49;;;;;;;9.45;1.30;;;5.10;99.90;;;;;;4993274;28;20048;-68
2022/04/10 07:03:14;;;;;;;9.80;2.20;;;5.10;99.90;;;;;;5000193;28;20046;-69
2022/04/10 07:05:40;;;;;;;10.53;1.77;;;5.10;99.90;;;;;;5003220;28;20042;-69
2022/04/10 07:08:07;;;;;;;6.85;1.65;;;5.10;99.90;;;;;;4998765;28;20471;-68
2022/04/10 07:10:33;;;;;;;13.48;1.73;;;5.20;99.90;;;;;;4991535;28;20049;-69
2022/04/10 07:12:58;;;;;;;7.13;1.40;;;5.20;99.90;;;;;;4998697;28;20064;-69
2022/04/10 07:15:24;;;;;;;6.43;1.47;;;5.30;99.90;;;;;;5003764;28;20046;-68
2022/04/10 07:17:50;;;;;;;6.60;1.20;;;5.40;99.90;;;;;;5003682;28;20126;-68
2022/04/10 07:20:15;;;;;;;5.97;1.43;;;5.50;99.90;;;;;;4994711;28;20037;-68
2022/04/10 07:25:25;;;;;;;10.75;2.13;;;5.60;99.90;;;;;;4998101;28;20069;-69
2022/04/10 07:27:51;;;;;;;10.50;1.20;;;5.70;99.90;;;;;;5001403;28;20132;-69
2022/04/10 07:30:16;;;;;;;10.50;1.63;;;5.70;99.90;;;;;;5001738;28;20042;-68
2022/04/10 07:32:42;;;;;;;8.03;1.67;;;5.80;99.90;;;;;;5004426;28;20096;-69
2022/04/10 07:35:08;;;;;;;6.93;1.70;;;5.90;99.90;;;;;;5000511;28;20061;-68
2022/04/10 07:37:33;;;;;;;8.57;1.42;;;6.00;99.90;;;;;;4997203;28;20041;-69
2022/04/10 07:39:59;;;;;;;4.70;1.23;;;6.10;99.90;;;;;;5002676;28;20060;-68
2022/04/10 07:42:26;;;;;;;5.23;1.70;;;6.30;99.90;;;;;;4997357;28;20058;-69
2022/04/10 07:44:55;;;;;;;14.02;1.75;;;6.40;99.90;;;;;;4996939;28;20121;-69
2022/04/10 07:47:27;;;;;;;14.32;1.70;;;6.50;99.90;;;;;;4998714;28;20461;-69
2022/04/10 07:49:56;;;;;;;7.25;1.05;;;6.60;99.90;;;;;;5002642;28;20068;-69
2022/04/10 07:52:22;;;;;;;9.02;1.40;;;6.60;99.90;;;;;;4995715;28;20451;-69
2022/04/10 07:54:49;;;;;;;11.88;1.35;;;6.60;99.90;;;;;;5002979;28;20037;-69
2022/04/10 07:57:16;;;;;;;10.25;1.40;;;6.50;99.90;;;;;;5000551;28;20581;-69
2022/04/10 07:59:42;;;;;;;7.30;1.10;;;6.50;99.90;;;;;;4999563;28;20401;-69
2022/04/10 08:02:07;;;;;;;7.28;1.15;;;6.40;99.90;;;;;;4997109;28;20030;-69
2022/04/10 08:04:33;;;;;;;8.50;1.40;;;6.50;99.90;;;;;;5002983;28;20410;-69
2022/04/10 08:06:59;;;;;;;9.93;1.65;;;6.60;99.90;;;;;;4997415;28;20483;-69
2022/04/10 08:09:25;;;;;;;6.87;1.20;;;6.80;99.90;;;;;;5000052;28;20053;-69
2022/04/10 08:11:51;;;;;;;9.70;1.40;;;7.00;99.90;;;;;;5001029;28;20453;-69
2022/04/10 08:14:17;;;;;;;8.02;1.23;;;7.10;99.90;;;;;;4998949;28;20041;-69
2022/04/10 08:16:42;;;;;;;6.60;1.08;;;7.20;99.90;;;;;;4999345;28;20030;-69
2022/04/10 08:19:08;;;;;;;2.60;0.87;;;7.20;99.90;;;;;;4998590;28;20092;-69
2022/04/10 08:21:34;;;;;;;9.13;1.55;;;7.20;99.90;;;;;;5001756;28;20042;-69
2022/04/10 08:24:00;;;;;;;8.73;0.90;;;7.20;99.90;;;;;;4987644;28;20463;-69
2022/04/10 08:26:25;;;;;;;15.00;1.30;;;7.30;99.90;;;;;;4999275;28;20112;-69
2022/04/10 08:28:51;;;;;;;5.93;2.20;;;7.30;99.90;;;;;;4995942;28;20044;-69
2022/04/10 08:31:16;;;;;;;9.13;1.30;;;7.30;99.90;;;;;;5003393;28;20267;-69
2022/04/10 08:33:42;;;;;;;4.63;1.17;;;7.30;99.90;;;;;;5005200;28;20613;-69
2022/04/10 08:36:08;;;;;;;4.90;1.20;;;7.40;99.10;;;;;;5001206;28;20049;-69
2022/04/10 08:38:34;;;;;;;7.90;1.25;;;7.40;98.50;;;;;;4997269;28;20530;-69
2022/04/10 08:41:01;;;;;;;7.67;1.90;;;7.50;95.20;;;;;;4996891;28;20048;-69
2022/04/10 08:43:27;;;;;;;8.63;1.58;;;7.60;95.50;;;;;;5000415;28;20080;-69
2022/04/10 08:45:56;;;;;;;9.57;1.55;;;7.60;97.70;;;;;;5004188;28;20124;-69
2022/04/10 08:48:26;;;;;;;3.72;0.90;;;7.70;95.80;;;;;;5002707;28;20494;-69
2022/04/10 08:50:56;;;;;;;10.35;1.15;;;7.80;96.60;;;;;;4997904;28;20046;-68
2022/04/10 08:53:23;;;;;;;9.98;2.30;;;7.90;96.10;;;;;;5003007;28;20120;-69
2022/04/10 08:55:50;;;;;;;6.20;1.10;;;8.10;94.30;;;;;;5006789;28;20040;-69
2022/04/10 08:58:16;;;;;;;8.30;1.40;;;8.10;94.90;;;;;;5007476;28;20037;-69
2022/04/10 09:00:43;;;;;;;8.30;1.08;;;8.10;96.40;;;;;;5002762;28;20511;-69
2022/04/10 09:03:08;;;;;;;3.97;1.10;;;8.00;99.30;;;;;;4999929;28;20122;-69
2022/04/10 09:05:37;;;;;;;6.03;1.53;;;7.90;99.90;;;;;;5007726;28;20116;-69
2022/04/10 09:08:10;;;;;;;5.75;1.48;;;7.80;99.90;;;;;;5007390;28;20042;-69
2022/04/10 09:11:01;;;;;;;3.53;1.10;;;7.80;99.90;;;;;;5006813;28;20050;-69
2022/04/10 09:13:35;;;;;;;3.97;1.33;;;7.80;98.70;;;;;;5001640;28;20046;-69
2022/04/10 09:16:04;;;;;;;8.70;1.27;;;7.80;99.90;;;;;;5005157;28;20482;-69
2022/04/10 09:18:45;;;;;;;11.07;1.70;;;7.90;99.90;;;;;;5001505;28;20080;-69
2022/04/10 09:21:10;;;;;;;5.78;1.23;;;8.10;99.90;;;;;;4991609;28;20053;-68
2022/04/10 09:23:36;;;;;;;13.77;1.90;;;8.30;99.90;;;;;;5004016;28;20392;-69
2022/04/10 09:26:02;;;;;;;8.90;1.30;;;8.40;99.90;;;;;;4999141;28;20038;-69
2022/04/10 09:28:48;;;;;;;5.47;1.80;;;8.40;97.90;;;;;;5004562;28;20034;-69
2022/04/10 09:31:25;;;;;;;4.03;1.08;;;8.40;93.30;;;;;;4998683;28;20049;-69
2022/04/10 09:33:52;;;;;;;3.70;0.70;;;8.40;93.20;;;;;;5004159;28;20096;-69
2022/04/10 09:36:41;;;;;;;5.72;1.10;;;8.50;96.10;;;;;;4999857;28;20033;-69
2022/04/10 09:39:14;;;;;;;10.55;1.02;;;8.60;94.60;;;;;;5009183;28;20034;-69
2022/04/10 09:41:44;;;;;;;5.90;1.30;;;8.80;95.30;;;;;;4966883;28;20180;-68
2022/04/10 09:44:17;;;;;;;7.82;1.00;;;8.90;94.20;;;;;;4983145;28;20038;-69
2022/04/10 09:46:55;;;;;;;11.43;1.00;;;8.80;87.90;;;;;;4979675;28;20046;-68
2022/04/10 09:49:20;;;;;;;8.18;0.90;;;8.80;90.80;;;;;;4970042;28;20061;-69
2022/04/10 09:51:58;;;;;;;4.90;0.90;;;8.90;90.30;;;;;;4975220;28;20479;-69
2022/04/10 09:54:24;;;;;;;4.90;0.88;;;9.00;86.80;;;;;;4990392;28;20400;-69
2022/04/10 09:56:50;;;;;;;8.63;1.10;;;9.00;90.10;;;;;;4965244;28;20035;-69
2022/04/10 09:59:21;;;;;;;8.48;1.30;;;9.00;86.90;;;;;;4985162;28;20089;-69
2022/04/10 10:01:47;;;;;;;8.88;1.02;;;8.90;86.10;;;;;;4965941;28;20050;-69
2022/04/10 10:04:13;;;;;;;8.15;1.27;;;8.90;86.30;;;;;;4952390;28;20057;-69
2022/04/10 10:06:38;;;;;;;8.18;1.50;;;9.10;84.70;;;;;;4978391;28;20043;-69
2022/04/10 10:09:07;;;;;;;7.13;0.97;;;9.40;86.60;;;;;;4974649;28;20045;-69
2022/04/10 10:11:34;;;;;;;12.55;1.25;;;9.50;84.70;;;;;;4970587;28;20043;-69
2022/04/10 10:13:59;;;;;;;6.35;1.20;;;9.60;80.50;;;;;;4976033;28;20451;-69
2022/04/10 10:16:25;;;;;;;5.03;1.00;;;9.70;85.40;;;;;;4978248;28;20137;-69
2022/04/10 10:18:51;;;;;;;11.47;1.47;;;9.80;79.30;;;;;;4982205;28;20034;-69
2022/04/10 10:21:17;;;;;;;6.20;1.30;;;9.70;80.10;;;;;;4953002;28;20368;-69
2022/04/10 10:23:47;;;;;;;4.82;1.05;;;9.50;79.80;;;;;;4976733;28;20081;-69
2022/04/10 10:26:34;;;;;;;4.15;1.38;;;9.30;79.40;;;;;;4962446;28;20073;-69
2022/04/10 10:29:17;;;;;;;7.38;1.15;;;9.20;82.00;;;;;;4980121;28;20073;-69
2022/04/10 10:32:17;;;;;;;3.22;0.95;;;9.30;80.40;;;;;;4961775;28;20492;-69
2022/04/10 10:34:44;;;;;;;8.80;1.45;;;9.50;79.50;;;;;;4974050;28;20045;-69
2022/04/10 10:37:13;;;;;;;10.20;1.77;;;9.70;80.40;;;;;;4986149;28;20045;-69
2022/04/10 10:39:46;;;;;;;7.88;1.30;;;9.80;76.90;;;;;;4987625;28;20188;-69
2022/04/10 10:42:12;;;;;;;4.07;0.80;;;9.70;75.50;;;;;;4993073;28;20041;-68
2022/04/10 10:44:39;;;;;;;6.95;1.30;;;9.50;78.50;;;;;;5002081;28;20042;-69
2022/04/10 10:47:05;;;;;;;7.20;1.45;;;9.60;78.70;;;;;;4999471;28;20407;-68
2022/04/10 10:49:31;;;;;;;3.03;0.90;;;9.70;81.00;;;;;;5004840;28;20471;-68
2022/04/10 10:51:58;;;;;;;7.32;0.80;;;10.00;81.60;;;;;;4986797;28;20054;-68
2022/04/10 10:54:32;;;;;;;5.60;1.38;;;10.20;78.10;;;;;;5003362;28;20356;-68
2022/04/10 10:56:57;;;;;;;8.77;0.93;;;10.50;76.00;;;;;;5001576;28;20165;-69
2022/04/10 10:59:24;;;;;;;4.90;0.70;;;10.40;70.00;;;;;;4992689;28;20065;-68
2022/04/10 11:01:52;;;;;;;6.88;0.75;;;10.50;69.00;;;;;;4998925;28;20037;-68
2022/04/10 11:04:22;;;;;;;8.77;1.45;;;10.50;68.00;;;;;;5002910;28;20045;-68
2022/04/10 11:06:48;;;;;;;5.25;1.08;;;10.60;67.20;;;;;;4997295;28;20042;-69
2022/04/10 11:09:32;;;;;;;6.32;1.10;;;10.70;67.90;;;;;;4998100;28;20033;-69
2022/04/10 11:11:59;;;;;;;6.38;1.10;;;10.60;64.80;;;;;;4993959;28;20060;-68
2022/04/10 11:14:33;;;;;;;;;;;10.50;67.10;;;;;;4997934;28;20129;-68
2022/04/10 11:17:14;;;;;;;6.70;1.58;;;10.30;65.80;;;;;;4998135;28;19918;-68
2022/04/10 11:19:45;;;;;;;3.92;1.15;;;10.10;69.20;;;;;;4999894;28;20738;-68
2022/04/10 11:22:23;;;;;;;8.35;0.90;;;10.30;71.70;;;;;;4996176;28;20046;-68
2022/04/10 11:24:58;;;;;;;9.77;1.00;;;10.50;70.30;;;;;;5002206;28;20044;-68
2022/04/10 11:27:50;;;;;;;9.95;1.35;;;10.70;65.10;;;;;;4992845;28;20145;-68
2022/04/10 11:30:22;;;;;;;3.45;1.13;;;10.80;65.70;;;;;;4995707;28;20162;-69
2022/04/10 11:32:53;;;;;;;3.88;1.15;;;10.90;67.50;;;;;;5003408;28;20038;-69
2022/04/10 11:35:23;;;;;;;6.53;1.48;;;10.70;66.90;;;;;;5006993;28;20045;-69
2022/04/10 11:37:51;;;;;;;2.95;1.10;;;10.60;69.30;;;;;;4982795;28;20107;-68
2022/04/10 11:40:22;;;;;;;11.00;1.80;;;10.70;70.90;;;;;;4999909;28;20642;-69
2022/04/10 11:42:48;;;;;;;4.05;1.00;;;10.90;72.70;;;;;;4993700;28;20403;-69
2022/04/10 11:45:14;;;;;;;2.60;0.90;;;11.00;71.00;;;;;;4982639;28;20133;-69
2022/04/10 11:47:42;;;;;;;4.53;1.33;;;11.00;68.10;;;;;;4992035;28;20124;-69
2022/04/10 11:50:13;;;;;;;5.40;1.45;;;11.10;67.30;;;;;;5004610;28;20050;-69
2022/04/10 11:52:40;;;;;;;2.15;0.82;;;11.40;66.80;;;;;;5011555;28;20117;-69
2022/04/10 11:55:08;;;;;;;5.30;1.42;;;11.50;63.90;;;;;;5014959;28;20487;-69
2022/04/10 11:57:38;;;;;;;4.72;1.20;;;11.70;63.40;;;;;;5006832;28;20511;-69
2022/04/10 12:00:10;;;;;;;2.95;0.93;;;12.00;64.50;;;;;;4988301;28;20042;-69
2022/04/10 12:02:37;;;;;;;3.92;1.05;;;12.00;62.40;;;;;;5003145;28;20506;-69
2022/04/10 12:05:06;;;;;;;5.10;1.45;;;11.70;61.80;;;;;;5005729;28;20407;-69
2022/04/10 12:07:36;;;;;;;4.63;1.17;;;11.40;62.40;;;;;;4999514;28;20048;-69
2022/04/10 12:10:02;;;;;;;7.88;0.75;;;11.20;62.70;;;;;;4975039;28;20576;-71
2022/04/10 12:12:46;;;;;;;3.58;0.73;;;10.90;63.60;;;;;;4827569;28;20326;-69
2022/04/10 12:15:20;;;;;;;3.53;0.60;;;10.90;62.90;;;;;;4821308;28;20435;-71
2022/04/10 12:17:47;;;;;;;4.25;0.80;;;11.10;63.20;;;;;;4969379;28;20037;-68
2022/04/10 12:20:14;;;;;;;6.18;0.80;;;11.30;63.60;;;;;;5013051;28;20490;-69
2022/04/10 12:22:41;;;;;;;4.75;0.98;;;11.30;62.00;;;;;;5009202;28;20045;-69
2022/04/10 12:25:09;;;;;;;5.03;1.15;;;11.20;62.80;;;;;;4999647;28;20091;-69
2022/04/10 12:27:35;;;;;;;2.63;1.05;;;11.10;63.00;;;;;;5010168;28;20054;-69
2022/04/10 12:30:15;;;;;;;5.15;0.90;;;10.80;61.40;;;;;;4868190;28;20420;-69
2022/04/10 12:32:44;;;;;;;8.77;0.77;;;10.60;61.40;;;;;;4978776;28;20049;-69
2022/04/10 12:35:14;;;;;;;6.32;1.65;;;10.30;61.50;;;;;;5009194;28;20125;-70
2022/04/10 12:38:05;;;;;;;4.03;0.77;;;10.30;62.80;;;;;;4928620;28;20212;-69
2022/04/10 12:40:41;;;;;;;4.63;1.05;;;10.40;63.00;;;;;;4817168;28;20211;-69
2022/04/10 12:43:09;;;;;;;5.10;1.00;;;10.60;63.50;;;;;;4835618;28;20903;-69
2022/04/10 12:45:37;;;;;;;4.28;1.58;;;10.70;62.80;;;;;;5007393;28;20046;-69
2022/04/10 12:48:26;;;;;;;5.25;1.10;;;10.70;61.60;;;;;;5009981;28;20041;-69
2022/04/10 12:51:10;;;;;;;5.18;0.93;;;10.40;57.80;;;;;;5009878;28;20117;-69
2022/04/10 12:53:43;;;;;;;5.03;1.10;;;10.30;60.10;;;;;;4982057;28;20165;-70
2022/04/10 12:56:20;;;;;;;3.55;1.02;;;10.30;62.40;;;;;;4876045;28;20037;-78
2022/04/10 12:58:48;;;;;;;4.72;0.90;;;10.50;63.30;;;;;;5012992;28;20053;-70
2022/04/10 13:01:31;;;;;;;7.15;1.02;;;10.80;64.70;;;;;;5012401;28;20069;-70
2022/04/10 13:03:59;;;;;;;5.53;0.95;;;11.10;63.90;;;;;;4992734;28;20050;-70
2022/04/10 13:06:46;;;;;;;6.47;0.90;;;11.40;63.60;;;;;;5006174;28;20045;-70